createdAt,value
2018-06-01T00:02:05.417Z,24.09
2018-06-01T00:04:33.773Z,24.02
2018-06-01T00:07:02.104Z,23.99
2018-06-01T00:09:30.455Z,24.04
2018-06-01T00:11:58.788Z,24.12
2018-06-01T00:14:27.140Z,24.09
2018-06-01T00:16:55.467Z,23.92
2018-06-01T00:19:23.820Z,23.78
2018-06-01T00:21:52.152Z,23.66
2018-06-01T00:24:20.500Z,23.45
2018-06-01T00:26:48.828Z,23.32
2018-06-01T00:29:17.184Z,23.31
2018-06-01T00:31:45.516Z,23.41
2018-06-01T00:34:13.867Z,23.50
2018-06-01T00:36:42.192Z,23.48
2018-06-01T00:39:10.549Z,23.50
2018-06-01T00:41:38.876Z,23.48
2018-06-01T00:44:07.229Z,23.46
2018-06-01T00:46:35.560Z,23.54
2018-06-01T00:49:03.917Z,23.56
2018-06-01T00:51:32.249Z,23.54
2018-06-01T00:54:00.605Z,23.61
2018-06-01T00:56:28.944Z,23.52
2018-06-01T00:58:57.288Z,23.46
2018-06-01T01:01:25.637Z,23.49
2018-06-01T01:03:53.968Z,23.42
2018-06-01T01:06:22.312Z,23.39
2018-06-01T01:08:50.649Z,23.40
2018-06-01T01:11:18.996Z,23.41
2018-06-01T01:13:47.330Z,23.38
2018-06-01T01:16:15.676Z,23.33
2018-06-01T01:18:44.004Z,23.19
2018-06-01T01:21:12.352Z,23.10
2018-06-01T01:23:40.680Z,22.98
2018-06-01T01:26:09.035Z,22.90
2018-06-01T01:28:37.365Z,22.94
2018-06-01T01:31:05.715Z,22.97
2018-06-01T01:33:34.040Z,23.02
2018-06-01T01:36:02.397Z,23.00
2018-06-01T01:38:30.724Z,22.86
2018-06-01T01:40:59.084Z,22.79
2018-06-01T01:43:27.414Z,22.65
2018-06-01T01:45:55.765Z,22.68
2018-06-01T01:48:24.100Z,22.78
2018-06-01T01:50:52.448Z,22.91
2018-06-01T01:53:20.782Z,22.96
2018-06-01T01:55:49.132Z,22.94
2018-06-01T01:58:18.352Z,22.87
2018-06-01T02:00:46.704Z,22.76
2018-06-01T02:03:15.041Z,22.71
2018-06-01T02:05:43.397Z,22.66
2018-06-01T02:08:11.727Z,22.66
2018-06-01T02:10:40.081Z,22.52
2018-06-01T02:13:12.365Z,22.47
2018-06-01T02:15:40.714Z,22.49
2018-06-01T02:18:09.041Z,22.38
2018-06-01T02:20:37.400Z,22.33
2018-06-01T02:23:05.728Z,22.15
2018-06-01T02:25:34.077Z,21.94
2018-06-01T02:28:02.408Z,21.99
2018-06-01T02:30:30.759Z,22.08
2018-06-01T02:32:59.088Z,22.22
2018-06-01T02:35:27.436Z,22.45
2018-06-01T02:37:55.765Z,22.46
2018-06-01T02:40:24.121Z,22.35
2018-06-01T02:42:52.460Z,22.27
2018-06-01T02:45:20.837Z,22.28
2018-06-01T02:47:49.176Z,22.12
2018-06-01T02:50:17.529Z,22.05
2018-06-01T02:52:45.859Z,22.19
2018-06-01T02:55:14.212Z,22.38
2018-06-01T02:57:42.545Z,22.41
2018-06-01T03:00:10.904Z,22.38
2018-06-01T03:02:39.231Z,22.31
2018-06-01T03:05:07.556Z,22.21
2018-06-01T03:07:35.908Z,22.20
2018-06-01T03:10:04.248Z,22.26
2018-06-01T03:12:32.601Z,22.25
2018-06-01T03:15:00.934Z,22.22
2018-06-01T03:17:29.279Z,22.26
2018-06-01T03:19:57.613Z,22.33
2018-06-01T03:22:25.965Z,22.34
2018-06-01T03:24:54.288Z,22.22
2018-06-01T03:27:22.645Z,22.15
2018-06-01T03:29:50.973Z,22.19
2018-06-01T03:32:19.324Z,22.21
2018-06-01T03:34:47.653Z,22.26
2018-06-01T03:37:16.035Z,22.18
2018-06-01T03:39:44.337Z,22.02
2018-06-01T03:42:12.687Z,22.07
2018-06-01T03:44:41.024Z,22.06
2018-06-01T03:47:09.380Z,22.06
2018-06-01T03:49:37.712Z,22.12
2018-06-01T03:52:06.060Z,22.14
2018-06-01T03:54:34.393Z,22.24
2018-06-01T03:57:02.744Z,22.35
2018-06-01T03:59:31.073Z,22.43
2018-06-01T04:01:59.428Z,22.54
2018-06-01T04:04:27.760Z,22.64
2018-06-01T04:06:56.104Z,22.58
2018-06-01T04:09:27.964Z,22.48
2018-06-01T04:11:56.322Z,22.56
2018-06-01T04:14:24.652Z,22.65
2018-06-01T04:16:53.001Z,22.73
2018-06-01T04:19:21.337Z,22.88
2018-06-01T04:21:49.693Z,22.89
2018-06-01T04:24:18.029Z,22.82
2018-06-01T04:26:46.381Z,22.91
2018-06-01T04:29:14.928Z,22.82
2018-06-01T04:31:43.276Z,22.96
2018-06-01T04:34:11.605Z,23.01
2018-06-01T04:36:39.956Z,22.82
2018-06-01T04:39:08.293Z,22.83
2018-06-01T04:41:36.644Z,22.96
2018-06-01T04:44:04.988Z,23.17
2018-06-01T04:46:33.340Z,23.34
2018-06-01T04:49:01.673Z,23.55
2018-06-01T04:51:30.037Z,23.72
2018-06-01T04:53:58.372Z,23.77
2018-06-01T04:56:26.727Z,23.77
2018-06-01T04:58:55.068Z,23.89
2018-06-01T05:01:23.424Z,23.85
2018-06-01T05:03:51.759Z,23.67
2018-06-01T05:06:20.124Z,23.71
2018-06-01T05:08:48.489Z,23.77
2018-06-01T05:11:16.830Z,23.87
2018-06-01T05:13:45.189Z,23.93
2018-06-01T05:16:13.528Z,24.00
2018-06-01T05:18:41.889Z,24.09
2018-06-01T05:21:10.220Z,24.15
2018-06-01T05:23:38.576Z,24.14
2018-06-01T05:26:06.991Z,24.19
2018-06-01T05:28:35.343Z,24.15
2018-06-01T05:31:03.698Z,24.24
2018-06-01T05:33:32.102Z,24.28
2018-06-01T05:36:00.440Z,24.34
2018-06-01T05:38:28.812Z,24.28
2018-06-01T05:40:57.150Z,24.42
2018-06-01T05:43:25.509Z,24.56
2018-06-01T05:45:53.849Z,24.75
2018-06-01T05:48:22.212Z,24.77
2018-06-01T05:50:50.548Z,24.79
2018-06-01T05:53:18.908Z,24.91
2018-06-01T05:55:47.244Z,24.97
2018-06-01T05:58:15.600Z,25.05
2018-06-01T06:00:43.945Z,25.09
2018-06-01T06:03:12.632Z,25.02
2018-06-01T06:05:41.020Z,24.98
2018-06-01T06:08:09.377Z,24.91
2018-06-01T06:10:37.720Z,24.90
2018-06-01T06:13:06.916Z,24.82
2018-06-01T06:15:35.248Z,24.75
2018-06-01T06:18:03.604Z,24.65
2018-06-01T06:20:31.941Z,24.69
2018-06-01T06:23:00.297Z,24.74
2018-06-01T06:25:28.632Z,24.80
2018-06-01T06:27:56.996Z,24.86
2018-06-01T06:30:25.328Z,24.88
2018-06-01T06:32:53.687Z,24.96
2018-06-01T06:35:22.021Z,24.97
2018-06-01T06:37:50.389Z,24.97
2018-06-01T06:40:18.725Z,25.00
2018-06-01T06:42:47.089Z,25.17
2018-06-01T06:45:15.430Z,25.23
2018-06-01T06:47:43.785Z,25.34
2018-06-01T06:50:12.125Z,25.40
2018-06-01T06:52:40.485Z,25.43
2018-06-01T06:55:08.819Z,25.35
2018-06-01T06:57:37.196Z,25.29
2018-06-01T07:00:05.528Z,25.27
2018-06-01T07:02:33.885Z,25.23
2018-06-01T07:05:02.220Z,25.35
2018-06-01T07:07:30.580Z,25.38
2018-06-01T07:09:58.940Z,25.44
2018-06-01T07:12:27.280Z,25.40
2018-06-01T07:14:55.636Z,25.45
2018-06-01T07:17:23.972Z,25.47
2018-06-01T07:19:52.330Z,25.55
2018-06-01T07:22:20.724Z,25.61
2018-06-01T07:24:49.020Z,25.68
2018-06-01T07:27:17.360Z,25.76
2018-06-01T07:29:45.721Z,25.90
2018-06-01T07:32:14.056Z,26.17
2018-06-01T07:34:42.417Z,26.54
2018-06-01T07:37:11.037Z,26.88
2018-06-01T07:39:39.444Z,27.07
2018-06-01T07:42:07.836Z,27.27
2018-06-01T07:44:36.196Z,27.40
2018-06-01T07:47:06.967Z,27.18
2018-06-01T07:49:35.336Z,27.22
2018-06-01T07:52:03.673Z,27.34
2018-06-01T07:54:32.359Z,27.45
2018-06-01T07:57:00.690Z,27.25
2018-06-01T07:59:29.052Z,27.14
2018-06-01T08:01:57.700Z,27.21
2018-06-01T08:04:26.631Z,27.18
2018-06-01T08:06:54.973Z,27.17
2018-06-01T08:09:23.596Z,27.18
2018-06-01T08:11:51.940Z,27.31
2018-06-01T08:14:20.465Z,27.35
2018-06-01T08:16:48.805Z,27.34
2018-06-01T08:19:17.159Z,27.33
2018-06-01T08:21:45.501Z,27.43
2018-06-01T08:24:14.380Z,27.44
2018-06-01T08:26:42.716Z,27.55
2018-06-01T08:29:11.086Z,27.51
2018-06-01T08:31:39.421Z,27.48
2018-06-01T08:34:07.781Z,27.54
2018-06-01T08:36:36.124Z,27.44
2018-06-01T08:39:04.490Z,27.41
2018-06-01T08:41:32.820Z,27.43
2018-06-01T08:44:01.885Z,27.54
2018-06-01T08:46:30.255Z,27.54
2018-06-01T08:48:58.582Z,27.54
2018-06-01T08:51:26.914Z,27.53
2018-06-01T08:53:55.280Z,27.54
2018-06-01T08:56:23.612Z,27.53
2018-06-01T08:58:51.999Z,27.58
2018-06-01T09:01:20.316Z,27.64
2018-06-01T09:03:48.673Z,27.77
2018-06-01T09:06:17.009Z,27.88
2018-06-01T09:08:45.364Z,28.02
2018-06-01T09:11:13.704Z,28.12
2018-06-01T09:13:42.072Z,28.26
2018-06-01T09:16:10.410Z,28.49
2018-06-01T09:18:38.758Z,28.76
2018-06-01T09:21:07.113Z,28.75
2018-06-01T09:23:35.508Z,28.65
2018-06-01T09:26:03.868Z,28.69
2018-06-01T09:28:32.212Z,28.94
2018-06-01T09:31:00.565Z,29.19
2018-06-01T09:33:28.900Z,29.24
2018-06-01T09:35:57.256Z,29.37
2018-06-01T09:38:25.593Z,29.28
2018-06-01T09:40:53.964Z,29.28
2018-06-01T09:43:22.304Z,29.29
2018-06-01T09:45:50.665Z,29.42
2018-06-01T09:48:19.872Z,29.42
2018-06-01T09:50:48.236Z,29.47
2018-06-01T09:53:16.572Z,29.52
2018-06-01T09:55:44.932Z,29.67
2018-06-01T09:58:13.269Z,29.69
2018-06-01T10:00:47.280Z,29.67
2018-06-01T10:03:15.617Z,29.46
2018-06-01T10:05:43.968Z,29.31
2018-06-01T10:08:12.310Z,29.34
2018-06-01T10:10:40.661Z,29.40
2018-06-01T10:13:09.000Z,29.35
2018-06-01T10:15:37.437Z,29.11
2018-06-01T10:18:05.696Z,28.88
2018-06-01T10:20:34.913Z,28.72
2018-06-01T10:23:03.192Z,28.42
2018-06-01T10:25:31.555Z,28.32
2018-06-01T10:27:59.888Z,28.21
2018-06-01T10:30:28.249Z,28.21
2018-06-01T10:32:56.618Z,28.14
2018-06-01T10:35:24.956Z,28.07
2018-06-01T10:37:53.605Z,27.96
2018-06-01T10:40:22.131Z,27.95
2018-06-01T10:42:50.649Z,27.86
2018-06-01T10:45:18.994Z,27.87
2018-06-01T10:47:47.328Z,27.84
2018-06-01T10:50:15.692Z,27.76
2018-06-01T10:52:44.039Z,27.67
2018-06-01T10:55:12.434Z,27.51
2018-06-01T10:57:40.720Z,27.50
2018-06-01T11:00:09.076Z,27.51
2018-06-01T11:02:37.411Z,27.51
2018-06-01T11:05:05.765Z,27.51
2018-06-01T11:07:34.109Z,27.53
2018-06-01T11:10:02.469Z,27.42
2018-06-01T11:12:30.807Z,27.13
2018-06-01T11:14:59.160Z,26.57
2018-06-01T11:17:27.502Z,26.00
2018-06-01T11:19:55.872Z,25.73
2018-06-01T11:22:24.536Z,25.67
2018-06-01T11:24:52.956Z,25.57
2018-06-01T11:27:21.397Z,25.48
2018-06-01T11:29:49.729Z,25.33
2018-06-01T11:32:18.155Z,25.07
2018-06-01T11:34:46.513Z,24.97
2018-06-01T11:37:14.861Z,24.81
2018-06-01T11:39:43.229Z,24.75
2018-06-01T11:42:11.598Z,24.69
2018-06-01T11:44:39.932Z,24.72
2018-06-01T11:47:08.323Z,24.82
2018-06-01T11:49:36.713Z,24.90
2018-06-01T11:52:05.192Z,24.90
2018-06-01T11:54:33.521Z,24.87
2018-06-01T11:57:01.878Z,24.80
2018-06-01T11:59:30.208Z,24.78
2018-06-01T12:01:58.557Z,24.52
2018-06-01T12:04:26.885Z,24.26
2018-06-01T12:06:55.242Z,23.91
2018-06-01T12:09:23.565Z,23.71
2018-06-01T12:11:51.908Z,23.65
2018-06-01T12:14:20.233Z,23.71
2018-06-01T12:16:48.580Z,23.47
2018-06-01T12:19:16.917Z,23.29
2018-06-01T12:21:45.265Z,23.10
2018-06-01T12:24:13.605Z,22.88
2018-06-01T12:26:41.974Z,22.94
2018-06-01T12:29:10.332Z,22.85
2018-06-01T12:31:38.673Z,22.99
2018-06-01T12:34:07.049Z,22.89
2018-06-01T12:36:35.405Z,22.82
2018-06-01T12:39:03.764Z,22.78
2018-06-01T12:41:32.128Z,22.73
2018-06-01T12:44:00.520Z,22.65
2018-06-01T12:46:28.874Z,22.69
2018-06-01T12:48:57.203Z,22.85
2018-06-01T12:51:25.560Z,23.00
2018-06-01T12:53:53.902Z,22.99
2018-06-01T12:56:22.248Z,22.79
2018-06-01T12:58:50.591Z,22.99
2018-06-01T13:01:19.788Z,23.11
2018-06-01T13:03:48.682Z,23.24
2018-06-01T13:06:17.104Z,23.39
2018-06-01T13:08:45.433Z,23.28
2018-06-01T13:11:13.784Z,23.25
2018-06-01T13:13:42.111Z,23.38
2018-06-01T13:16:10.468Z,23.46
2018-06-01T13:18:38.803Z,23.49
2018-06-01T13:21:07.177Z,23.65
2018-06-01T13:23:35.517Z,23.78
2018-06-01T13:26:03.853Z,23.94
2018-06-01T13:28:32.240Z,23.97
2018-06-01T13:31:00.576Z,24.14
2018-06-01T13:33:28.945Z,24.32
2018-06-01T13:35:57.280Z,24.39
2018-06-01T13:38:25.632Z,24.43
2018-06-01T13:40:54.033Z,24.36
2018-06-01T13:43:22.390Z,24.52
2018-06-01T13:45:50.724Z,24.55
2018-06-01T13:48:19.821Z,24.58
2018-06-01T13:50:48.162Z,24.54
2018-06-01T13:53:16.525Z,24.56
2018-06-01T13:55:44.877Z,24.58
2018-06-01T13:58:13.249Z,24.59
2018-06-01T14:00:41.568Z,24.49
2018-06-01T14:03:09.929Z,24.53
2018-06-01T14:05:38.264Z,24.64
2018-06-01T14:08:06.626Z,24.76
2018-06-01T14:10:34.976Z,24.78
2018-06-01T14:13:03.345Z,24.77
2018-06-01T14:15:31.685Z,24.75
2018-06-01T14:18:00.048Z,24.81
2018-06-01T14:20:28.402Z,24.94
2018-06-01T14:22:56.776Z,25.11
2018-06-01T14:25:25.125Z,25.08
2018-06-01T14:27:53.480Z,25.08
2018-06-01T14:30:21.825Z,25.08
2018-06-01T14:32:50.189Z,25.05
2018-06-01T14:35:18.586Z,25.00
2018-06-01T14:37:46.885Z,24.93
2018-06-01T14:40:15.264Z,25.00
2018-06-01T14:42:43.606Z,25.11
2018-06-01T14:45:11.933Z,25.23
2018-06-01T14:47:40.293Z,25.34
2018-06-01T14:50:08.636Z,25.51
2018-06-01T14:52:36.996Z,25.64
2018-06-01T14:55:05.332Z,25.69
2018-06-01T14:57:33.865Z,25.79
2018-06-01T15:00:02.219Z,25.84
2018-06-01T15:02:30.576Z,25.93
2018-06-01T15:04:58.912Z,25.86
2018-06-01T15:07:27.277Z,25.89
2018-06-01T15:09:55.613Z,26.00
2018-06-01T15:12:23.965Z,26.10
2018-06-01T15:14:52.309Z,26.04
2018-06-01T15:17:21.108Z,25.96
2018-06-01T15:19:49.450Z,25.98
2018-06-01T15:22:17.812Z,26.01
2018-06-01T15:24:46.152Z,25.91
2018-06-01T15:27:14.501Z,25.71
2018-06-01T15:29:42.850Z,25.55
2018-06-01T15:32:11.189Z,25.59
2018-06-01T15:34:39.547Z,25.64
2018-06-01T15:37:08.717Z,25.60
2018-06-01T15:39:37.080Z,25.71
2018-06-01T15:42:05.441Z,25.69
2018-06-01T15:44:33.791Z,25.74
2018-06-01T15:47:02.132Z,25.93
2018-06-01T15:49:30.488Z,26.30
2018-06-01T15:51:58.829Z,27.06
2018-06-01T15:54:27.574Z,26.64
2018-06-01T15:56:56.261Z,26.22
2018-06-01T15:59:25.063Z,26.18
2018-06-01T16:01:54.577Z,26.19
2018-06-01T16:04:22.945Z,26.26
2018-06-01T16:06:51.284Z,26.82
2018-06-01T16:09:20.412Z,26.40
2018-06-01T16:11:48.754Z,26.11
2018-06-01T16:14:17.151Z,25.90
2018-06-01T16:16:45.449Z,25.85
2018-06-01T16:19:13.804Z,25.78
2018-06-01T16:21:42.145Z,25.67
2018-06-01T16:24:10.518Z,25.67
2018-06-01T16:26:38.861Z,25.73
2018-06-01T16:29:07.198Z,25.79
2018-06-01T16:31:35.563Z,25.82
2018-06-01T16:34:03.888Z,25.92
2018-06-01T16:36:32.244Z,25.82
2018-06-01T16:40:57.115Z,25.75
2018-06-01T16:43:25.447Z,25.73
2018-06-01T16:45:53.806Z,25.75
2018-06-01T16:48:22.136Z,25.80
2018-06-01T16:50:50.505Z,25.82
2018-06-01T16:53:18.836Z,25.82
2018-06-01T16:55:47.206Z,25.76
2018-06-01T16:58:15.541Z,25.68
2018-06-01T17:00:43.921Z,25.66
2018-06-01T17:03:12.262Z,25.74
2018-06-01T17:05:40.621Z,25.76
2018-06-01T17:08:08.964Z,25.70
2018-06-01T17:10:37.325Z,25.71
2018-06-01T17:13:05.659Z,25.72
2018-06-01T17:15:34.028Z,25.74
2018-06-01T17:18:02.361Z,25.70
2018-06-01T17:20:30.729Z,25.75
2018-06-01T17:22:59.074Z,25.76
2018-06-01T17:25:27.409Z,25.77
2018-06-01T17:27:55.759Z,25.65
2018-06-01T17:30:24.100Z,25.62
2018-06-01T17:32:52.457Z,25.63
2018-06-01T17:35:20.787Z,25.71
2018-06-01T17:37:49.434Z,25.82
2018-06-01T17:40:17.721Z,25.90
2018-06-01T17:42:46.080Z,25.79
2018-06-01T17:45:14.425Z,25.78
2018-06-01T17:47:42.776Z,25.77
2018-06-01T17:50:11.116Z,25.71
2018-06-01T17:52:39.476Z,26.73
2018-06-01T17:55:07.820Z,26.31
2018-06-01T17:57:36.178Z,26.23
2018-06-01T18:00:06.373Z,26.31
2018-06-01T18:02:34.849Z,26.28
2018-06-01T18:05:03.194Z,26.25
2018-06-01T18:07:32.503Z,26.35
2018-06-01T18:10:00.844Z,26.39
2018-06-01T18:12:29.195Z,26.43
2018-06-01T18:14:57.533Z,26.40
2018-06-01T18:17:25.916Z,26.33
2018-06-01T18:19:54.257Z,26.27
2018-06-01T18:22:22.638Z,26.15
2018-06-01T18:24:50.956Z,26.00
2018-06-01T18:27:20.179Z,26.07
2018-06-01T18:29:48.515Z,26.11
2018-06-01T18:32:16.852Z,26.11
2018-06-01T18:34:45.216Z,26.23
2018-06-01T18:37:13.561Z,26.31
2018-06-01T18:39:41.923Z,26.32
2018-06-01T18:42:10.264Z,26.36
2018-06-01T18:44:38.629Z,26.34
2018-06-01T18:47:06.968Z,26.28
2018-06-01T18:49:35.386Z,26.23
2018-06-01T18:52:03.671Z,26.23
2018-06-01T18:54:32.029Z,26.20
2018-06-01T18:57:00.366Z,26.19
2018-06-01T18:59:28.723Z,26.09
2018-06-01T19:01:57.084Z,26.02
2018-06-01T19:04:25.436Z,25.93
2018-06-01T19:06:53.801Z,25.86
2018-06-01T19:09:22.179Z,25.77
2018-06-01T19:11:50.512Z,25.66
2018-06-01T19:14:18.880Z,25.52
2018-06-01T19:16:47.216Z,25.40
2018-06-01T19:19:15.590Z,25.40
2018-06-01T19:21:43.930Z,25.41
2018-06-01T19:24:12.294Z,25.47
2018-06-01T19:26:40.633Z,25.43
2018-06-01T19:29:08.988Z,25.40
2018-06-01T19:31:37.328Z,25.36
2018-06-01T19:34:05.690Z,25.22
2018-06-01T19:36:35.051Z,25.03
2018-06-01T19:39:03.388Z,24.92
2018-06-01T19:41:32.194Z,24.95
2018-06-01T19:44:00.523Z,25.00
2018-06-01T19:46:28.896Z,25.01
2018-06-01T19:48:57.224Z,24.96
2018-06-01T19:51:25.627Z,24.88
2018-06-01T19:53:53.966Z,24.77
2018-06-01T19:56:22.320Z,24.73
2018-06-01T19:58:51.030Z,24.68
2018-06-01T20:01:19.364Z,24.62
2018-06-01T20:03:47.695Z,24.61
2018-06-01T20:06:16.052Z,24.66
2018-06-01T20:08:44.388Z,24.70
2018-06-01T20:11:12.761Z,24.73
2018-06-01T20:13:41.096Z,24.71
2018-06-01T20:16:09.453Z,24.59
2018-06-01T20:18:38.637Z,24.55
2018-06-01T20:21:07.008Z,24.50
2018-06-01T20:23:35.357Z,24.49
2018-06-01T20:26:03.717Z,24.49
2018-06-01T20:28:32.061Z,24.49
2018-06-01T20:31:00.430Z,24.48
2018-06-01T20:33:28.768Z,24.52
2018-06-01T20:35:57.128Z,24.57
2018-06-01T20:38:26.304Z,24.60
2018-06-01T20:40:54.679Z,24.57
2018-06-01T20:43:23.017Z,24.61
2018-06-01T20:45:51.361Z,24.67
2018-06-01T20:48:19.728Z,24.64
2018-06-01T20:50:48.123Z,24.50
2018-06-01T20:53:16.424Z,24.40
2018-06-01T20:55:44.760Z,24.38
2018-06-01T20:58:13.125Z,24.38
2018-06-01T21:00:41.460Z,25.68
2018-06-01T21:03:09.826Z,25.01
2018-06-01T21:05:38.173Z,24.70
2018-06-01T21:08:06.536Z,24.59
2018-06-01T21:10:34.874Z,24.61
2018-06-01T21:13:03.241Z,24.63
2018-06-01T21:15:31.581Z,24.62
2018-06-01T21:18:00.720Z,24.54
2018-06-01T21:20:29.056Z,24.45
2018-06-01T21:22:57.416Z,24.45
2018-06-01T21:25:25.757Z,25.67
2018-06-01T21:27:54.121Z,24.85
2018-06-01T21:30:22.455Z,24.59
2018-06-01T21:32:50.825Z,24.56
2018-06-01T21:35:19.169Z,24.49
2018-06-01T21:37:47.528Z,24.42
2018-06-01T21:40:15.869Z,24.37
2018-06-01T21:42:44.228Z,24.35
2018-06-01T21:45:12.561Z,24.29
2018-06-01T21:47:40.925Z,24.31
2018-06-01T21:50:09.260Z,24.34
2018-06-01T21:52:37.617Z,24.31
2018-06-01T21:55:05.957Z,24.31
2018-06-01T21:57:35.040Z,24.27
2018-06-01T22:00:03.401Z,24.15
2018-06-01T22:02:31.745Z,24.09
2018-06-01T22:05:00.105Z,24.09
2018-06-01T22:07:28.445Z,24.03
2018-06-01T22:09:56.800Z,24.08
2018-06-01T22:12:25.132Z,24.04
2018-06-01T22:14:53.497Z,23.88
2018-06-01T22:17:21.946Z,23.72
2018-06-01T22:19:50.299Z,23.71
2018-06-01T22:22:19.537Z,23.69
2018-06-01T22:24:47.897Z,23.71
2018-06-01T22:27:16.224Z,23.73
2018-06-01T22:29:44.589Z,23.63
2018-06-01T22:32:12.924Z,23.59
2018-06-01T22:34:41.284Z,23.34
2018-06-01T22:37:09.625Z,23.24
2018-06-01T22:39:37.984Z,23.30
2018-06-01T22:42:06.316Z,23.42
2018-06-01T22:44:34.693Z,23.40
2018-06-01T22:47:03.029Z,23.35
2018-06-01T22:49:31.369Z,23.38
2018-06-01T22:51:59.724Z,23.49
2018-06-01T22:54:28.059Z,23.48
2018-06-01T22:56:56.425Z,23.28
2018-06-01T22:59:24.766Z,23.16
2018-06-01T23:01:53.121Z,23.19
2018-06-01T23:04:21.462Z,23.20
2018-06-01T23:06:49.836Z,23.14
2018-06-01T23:09:18.170Z,23.12
2018-06-01T23:11:46.530Z,23.08
2018-06-01T23:14:14.872Z,22.86
2018-06-01T23:16:43.954Z,22.82
2018-06-01T23:19:12.288Z,22.76
2018-06-01T23:21:40.649Z,22.70
2018-06-01T23:24:08.992Z,22.66
2018-06-01T23:26:37.357Z,22.60
2018-06-01T23:29:05.693Z,22.53
2018-06-01T23:31:34.049Z,22.51
2018-06-01T23:34:02.400Z,22.44
2018-06-01T23:36:30.785Z,22.38
2018-06-01T23:38:59.120Z,22.40
2018-06-01T23:41:27.457Z,22.46
2018-06-01T23:43:55.812Z,22.49
2018-06-01T23:46:24.157Z,22.48
2018-06-01T23:48:52.516Z,22.45
2018-06-01T23:51:20.864Z,22.52
2018-06-01T23:53:50.123Z,22.42
2018-06-01T23:56:18.465Z,22.41
2018-06-01T23:58:46.824Z,22.48
